Time;durP1;ratioP1;P1;durP2;ratioP2;P2;SDS_P1;SDS_P2;PMS_P1;PMS_P2;Temp;Humidity;BMP_temperature;BMP_pressure;BME280_temperature;BME280_humidity;BME280_pressure;Samples;Min_cycle;Max_cycle;Signal;HPM_P1;HPM_P2
2022/04/15 00:02:53;;;;;;;14.73;11.30;;;;;;;;;;6295812;28;20082;-79
2022/04/15 00:05:55;;;;;;;17.63;11.98;;;;;;;;;;6295140;28;20516;-78
2022/04/15 00:08:57;;;;;;;18.00;11.45;;;;;;;;;;6292431;28;20407;-81
2022/04/15 00:12:06;;;;;;;18.92;11.45;;;;;;;;;;6294020;28;20040;-81
2022/04/15 00:15:08;;;;;;;17.10;11.55;;;;;;;;;;6294157;28;20044;-79
2022/04/15 00:18:10;;;;;;;17.60;11.48;;;;;;;;;;6297102;28;20102;-81
2022/04/15 00:21:12;;;;;;;17.40;11.60;;;;;;;;;;6301056;28;20066;-81
2022/04/15 00:24:13;;;;;;;18.65;12.32;;;;;;;;;;6283114;28;20065;-81
2022/04/15 00:27:15;;;;;;;16.80;10.65;;;;;;;;;;6275676;28;20044;-80
2022/04/15 00:30:18;;;;;;;19.08;11.10;;;;;;;;;;6253086;28;20045;-78
2022/04/15 00:33:21;;;;;;;17.13;11.57;;;;;;;;;;6273955;28;20045;-81
2022/04/15 00:36:23;;;;;;;17.83;11.07;;;;;;;;;;6299718;28;20094;-79
2022/04/15 00:39:25;;;;;;;18.20;11.55;;;;;;;;;;6302039;28;20044;-81
2022/04/15 00:42:27;;;;;;;17.52;11.60;;;;;;;;;;6302381;28;20073;-82
2022/04/15 00:45:29;;;;;;;19.90;11.45;;;;;;;;;;6293777;28;20090;-83
2022/04/15 00:48:31;;;;;;;20.63;11.57;;;;;;;;;;6279167;28;20051;-82
2022/04/15 00:51:36;;;;;;;16.60;10.63;;;;;;;;;;6292902;28;20041;-80
2022/04/15 00:54:38;;;;;;;19.33;10.38;;;;;;;;;;6278872;28;20379;-81
2022/04/15 00:57:42;;;;;;;17.20;11.10;;;;;;;;;;6278869;28;20700;-82
2022/04/15 01:00:45;;;;;;;17.73;11.88;;;;;;;;;;6276676;28;20190;-82
2022/04/15 01:03:48;;;;;;;18.65;11.55;;;;;;;;;;6277820;28;20120;-79
2022/04/15 01:06:54;;;;;;;20.08;11.90;;;;;;;;;;6301193;28;20048;-82
2022/04/15 01:09:56;;;;;;;20.40;11.55;;;;;;;;;;6295885;28;20049;-82
2022/04/15 01:12:58;;;;;;;14.75;10.23;;;;;;;;;;6277803;28;20079;-79
2022/04/15 01:16:21;;;;;;;16.88;10.45;;;;;;;;;;6276645;28;20518;-78
2022/04/15 01:19:25;;;;;;;14.32;10.15;;;;;;;;;;6275799;28;20052;-78
2022/04/15 01:22:40;;;;;;;16.80;10.57;;;;;;;;;;6274154;28;20045;-80
2022/04/15 01:25:42;;;;;;;15.80;10.20;;;;;;;;;;6274931;28;20041;-79
2022/04/15 01:28:44;;;;;;;16.98;9.55;;;;;;;;;;6275135;28;20045;-80
2022/04/15 01:31:45;;;;;;;15.77;10.73;;;;;;;;;;6291398;28;20064;-79
2022/04/15 01:34:47;;;;;;;16.50;11.05;;;;;;;;;;6298942;28;20078;-79
2022/04/15 01:37:49;;;;;;;18.30;11.55;;;;;;;;;;6300618;28;20259;-79
2022/04/15 01:40:52;;;;;;;19.40;12.20;;;;;;;;;;6298129;28;20068;-79
2022/04/15 01:43:53;;;;;;;18.35;11.10;;;;;;;;;;6296424;28;20444;-79
2022/04/15 01:46:55;;;;;;;22.70;12.25;;;;;;;;;;6281235;28;20121;-79
2022/04/15 01:49:57;;;;;;;16.17;11.27;;;;;;;;;;6281900;28;20049;-77
2022/04/15 01:52:59;;;;;;;22.00;11.10;;;;;;;;;;6280836;28;20068;-80
2022/04/15 01:56:02;;;;;;;18.27;10.85;;;;;;;;;;6306172;28;20094;-80
2022/04/15 01:59:04;;;;;;;16.67;10.70;;;;;;;;;;6304138;28;20547;-78
2022/04/15 02:02:06;;;;;;;17.33;11.25;;;;;;;;;;6295542;28;20106;-80
2022/04/15 02:05:08;;;;;;;18.25;11.43;;;;;;;;;;6296112;28;20040;-82
2022/04/15 02:08:10;;;;;;;19.58;12.15;;;;;;;;;;6293459;28;20527;-81
2022/04/15 02:11:12;;;;;;;20.08;12.02;;;;;;;;;;6271300;28;20041;-80
2022/04/15 02:14:14;;;;;;;19.08;11.25;;;;;;;;;;6295864;28;20040;-80
2022/04/15 02:17:17;;;;;;;20.70;11.80;;;;;;;;;;6294261;28;20106;-81
2022/04/15 02:20:18;;;;;;;20.60;12.02;;;;;;;;;;6294436;28;20075;-82
2022/04/15 02:23:20;;;;;;;20.98;11.88;;;;;;;;;;6310476;28;20129;-82
2022/04/15 02:26:22;;;;;;;19.77;11.70;;;;;;;;;;6284393;28;20110;-78
2022/04/15 02:29:24;;;;;;;21.83;12.35;;;;;;;;;;6270906;28;20122;-81
2022/04/15 02:32:26;;;;;;;17.45;11.00;;;;;;;;;;6292857;28;20048;-79
2022/04/15 02:35:27;;;;;;;19.02;11.77;;;;;;;;;;6271394;28;20049;-78
2022/04/15 02:38:29;;;;;;;22.10;11.75;;;;;;;;;;6269564;28;20094;-78
2022/04/15 02:41:31;;;;;;;19.85;11.45;;;;;;;;;;6268958;28;20049;-79
2022/04/15 02:44:33;;;;;;;21.80;12.15;;;;;;;;;;6270481;28;20072;-77
2022/04/15 02:47:34;;;;;;;20.13;11.85;;;;;;;;;;6246281;28;20061;-82
2022/04/15 02:50:36;;;;;;;21.33;11.93;;;;;;;;;;6246532;28;20072;-81
2022/04/15 02:53:37;;;;;;;22.10;11.90;;;;;;;;;;6247707;28;20061;-79
2022/04/15 02:56:39;;;;;;;22.35;12.75;;;;;;;;;;6253449;28;20816;-80
2022/04/15 02:59:41;;;;;;;25.08;13.98;;;;;;;;;;6289372;28;20109;-81
2022/04/15 03:02:42;;;;;;;22.00;13.48;;;;;;;;;;6282746;28;20090;-82
2022/04/15 03:05:44;;;;;;;23.17;12.60;;;;;;;;;;6286625;27;20049;-79
2022/04/15 03:08:45;;;;;;;20.80;12.13;;;;;;;;;;6291668;27;20596;-80
2022/04/15 03:11:48;;;;;;;26.50;13.05;;;;;;;;;;6291973;28;20119;-80
2022/04/15 03:14:51;;;;;;;19.02;11.63;;;;;;;;;;6288439;28;20074;-81
2022/04/15 03:17:52;;;;;;;19.17;11.98;;;;;;;;;;6244047;28;20099;-82
2022/04/15 03:20:54;;;;;;;19.17;11.02;;;;;;;;;;6272961;28;20083;-81
2022/04/15 03:23:56;;;;;;;17.77;11.02;;;;;;;;;;6289769;28;20076;-80
2022/04/15 03:26:57;;;;;;;15.05;10.48;;;;;;;;;;6293456;28;20055;-79
2022/04/15 03:29:59;;;;;;;16.45;10.20;;;;;;;;;;6287503;28;20122;-82
2022/04/15 03:33:01;;;;;;;16.42;10.63;;;;;;;;;;6283237;28;20133;-81
2022/04/15 03:36:03;;;;;;;18.58;11.60;;;;;;;;;;6290248;28;20045;-81
2022/04/15 03:39:05;;;;;;;23.70;12.02;;;;;;;;;;6265475;28;20121;-81
2022/04/15 03:42:07;;;;;;;18.13;11.07;;;;;;;;;;6285425;28;20075;-81
2022/04/15 03:45:11;;;;;;;17.33;10.55;;;;;;;;;;6288948;28;20053;-79
2022/04/15 03:48:13;;;;;;;19.15;10.57;;;;;;;;;;6291027;28;20060;-79
2022/04/15 03:51:14;;;;;;;17.60;10.95;;;;;;;;;;6291844;28;20036;-82
2022/04/15 03:54:16;;;;;;;18.00;9.95;;;;;;;;;;6286529;28;20087;-81
2022/04/15 03:57:18;;;;;;;18.55;11.68;;;;;;;;;;6278627;28;20097;-79
2022/04/15 04:00:22;;;;;;;16.20;10.80;;;;;;;;;;6289563;28;20067;-78
2022/04/15 04:03:23;;;;;;;20.15;12.48;;;;;;;;;;6290967;28;20044;-78
2022/04/15 04:06:25;;;;;;;17.92;10.95;;;;;;;;;;6284254;28;20044;-80
2022/04/15 04:09:27;;;;;;;19.77;10.98;;;;;;;;;;6292722;28;20082;-80
2022/04/15 04:12:33;;;;;;;17.83;10.15;;;;;;;;;;6290688;28;20048;-79
2022/04/15 04:15:35;;;;;;;15.90;10.32;;;;;;;;;;6270407;28;20072;-80
2022/04/15 04:18:37;;;;;;;17.65;9.88;;;;;;;;;;6269308;28;20051;-80
2022/04/15 04:21:39;;;;;;;15.55;10.00;;;;;;;;;;6251656;28;20360;-79
2022/04/15 04:24:40;;;;;;;20.13;10.50;;;;;;;;;;6289216;28;20099;-81
2022/04/15 04:27:43;;;;;;;21.17;11.98;;;;;;;;;;6267709;28;20055;-82
2022/04/15 04:30:44;;;;;;;22.13;12.23;;;;;;;;;;6246663;28;20045;-82
2022/04/15 04:33:46;;;;;;;22.70;12.45;;;;;;;;;;6286209;28;20048;-81
2022/04/15 04:36:48;;;;;;;21.40;12.80;;;;;;;;;;6290247;28;20095;-79
2022/04/15 04:39:50;;;;;;;19.55;12.07;;;;;;;;;;6289489;28;20040;-77
2022/04/15 04:42:52;;;;;;;20.33;11.50;;;;;;;;;;6289209;28;20072;-77
2022/04/15 04:45:55;;;;;;;19.00;10.95;;;;;;;;;;6284895;28;20125;-80
2022/04/15 04:48:59;;;;;;;19.33;10.30;;;;;;;;;;6292560;28;20052;-80
2022/04/15 04:52:04;;;;;;;19.77;11.73;;;;;;;;;;6288314;28;20755;-80
2022/04/15 04:55:07;;;;;;;19.63;11.93;;;;;;;;;;6263034;28;20119;-81
2022/04/15 04:58:11;;;;;;;20.50;11.95;;;;;;;;;;6264017;28;20120;-78
2022/04/15 05:01:15;;;;;;;21.13;11.77;;;;;;;;;;6274084;28;20036;-77
2022/04/15 05:04:16;;;;;;;23.67;12.45;;;;;;;;;;6288845;28;20044;-79
2022/04/15 05:07:18;;;;;;;18.60;11.27;;;;;;;;;;6290363;28;20485;-79
2022/04/15 05:10:22;;;;;;;18.85;11.68;;;;;;;;;;6286300;28;20044;-79
2022/04/15 05:13:23;;;;;;;19.77;12.10;;;;;;;;;;6278182;28;20040;-78
2022/04/15 05:16:25;;;;;;;22.65;12.60;;;;;;;;;;6276629;28;20048;-79
2022/04/15 05:19:27;;;;;;;20.27;11.40;;;;;;;;;;6268716;28;20136;-80
2022/04/15 05:22:28;;;;;;;20.42;11.48;;;;;;;;;;6276662;28;20055;-79
2022/04/15 05:25:30;;;;;;;17.70;10.93;;;;;;;;;;6269603;28;20133;-78
2022/04/15 05:28:38;;;;;;;16.02;10.02;;;;;;;;;;6268654;28;20045;-79
2022/04/15 05:31:40;;;;;;;17.00;10.73;;;;;;;;;;6267780;28;20157;-79
2022/04/15 05:34:46;;;;;;;15.13;10.35;;;;;;;;;;6293009;28;20052;-80
2022/04/15 05:37:47;;;;;;;16.67;10.35;;;;;;;;;;6289134;28;20438;-79
2022/04/15 05:40:49;;;;;;;16.10;10.30;;;;;;;;;;6266968;28;20069;-80
2022/04/15 05:43:51;;;;;;;17.08;10.57;;;;;;;;;;6287340;28;20049;-80
2022/04/15 05:46:52;;;;;;;16.02;10.63;;;;;;;;;;6285079;28;20590;-80
2022/04/15 05:49:54;;;;;;;18.73;11.07;;;;;;;;;;6292257;28;20098;-79
2022/04/15 05:53:02;;;;;;;18.52;10.48;;;;;;;;;;6290166;28;20063;-79
2022/04/15 05:56:05;;;;;;;18.05;10.57;;;;;;;;;;6268198;28;20047;-80
2022/04/15 05:59:06;;;;;;;15.77;10.43;;;;;;;;;;6267111;28;20143;-77
2022/04/15 06:02:08;;;;;;;17.98;11.10;;;;;;;;;;6286735;28;20061;-78
2022/04/15 06:05:10;;;;;;;19.50;12.10;;;;;;;;;;6279340;28;20596;-76
2022/04/15 06:08:11;;;;;;;21.60;11.00;;;;;;;;;;6269188;28;20067;-78
2022/04/15 06:11:13;;;;;;;21.70;12.20;;;;;;;;;;6269565;28;20464;-76
2022/04/15 06:14:17;;;;;;;19.63;12.05;;;;;;;;;;6274326;28;20041;-78
2022/04/15 06:17:22;;;;;;;18.30;11.25;;;;;;;;;;6271680;28;20459;-78
2022/04/15 06:20:24;;;;;;;19.98;12.52;;;;;;;;;;6273158;28;20059;-77
2022/04/15 06:23:25;;;;;;;18.95;11.20;;;;;;;;;;6273989;28;20060;-77
2022/04/15 06:26:27;;;;;;;16.88;11.05;;;;;;;;;;6290706;28;20100;-78
2022/04/15 06:29:29;;;;;;;18.17;11.35;;;;;;;;;;6250727;28;20076;-78
2022/04/15 06:32:30;;;;;;;18.77;11.65;;;;;;;;;;6265037;28;20079;-78
2022/04/15 06:35:33;;;;;;;17.23;11.52;;;;;;;;;;6291215;28;20041;-79
2022/04/15 06:38:34;;;;;;;18.23;11.52;;;;;;;;;;6287894;28;20117;-79
2022/04/15 06:41:36;;;;;;;21.55;11.88;;;;;;;;;;6283470;28;20127;-79
2022/04/15 06:44:37;;;;;;;18.05;11.35;;;;;;;;;;6281650;28;20121;-77
2022/04/15 06:47:39;;;;;;;17.55;10.70;;;;;;;;;;6257491;28;20044;-76
2022/04/15 06:50:41;;;;;;;16.50;11.05;;;;;;;;;;6287077;28;20102;-79
2022/04/15 06:53:42;;;;;;;15.75;10.68;;;;;;;;;;6278774;28;20041;-78
2022/04/15 06:56:44;;;;;;;18.27;10.57;;;;;;;;;;6265652;28;20057;-79
2022/04/15 06:59:50;;;;;;;15.18;10.60;;;;;;;;;;6266145;28;20060;-78
2022/04/15 07:02:51;;;;;;;15.27;9.40;;;;;;;;;;6278911;28;20302;-77
2022/04/15 07:05:53;;;;;;;16.85;9.30;;;;;;;;;;6284913;28;20107;-78
2022/04/15 07:08:55;;;;;;;16.48;9.27;;;;;;;;;;6263058;28;20055;-78
2022/04/15 07:11:56;;;;;;;13.98;9.55;;;;;;;;;;6266083;28;20094;-77
2022/04/15 07:14:59;;;;;;;15.57;9.70;;;;;;;;;;6280435;28;20041;-79
2022/04/15 07:18:02;;;;;;;19.60;10.10;;;;;;;;;;6288406;28;20530;-78
2022/04/15 07:21:05;;;;;;;17.98;10.30;;;;;;;;;;6291555;28;20051;-78
2022/04/15 07:24:07;;;;;;;20.13;10.10;;;;;;;;;;6281228;28;20365;-80
2022/04/15 07:27:09;;;;;;;15.73;10.05;;;;;;;;;;6273247;28;20513;-78
2022/04/15 07:30:11;;;;;;;19.00;10.00;;;;;;;;;;6273602;28;20040;-78
2022/04/15 07:33:12;;;;;;;16.98;9.65;;;;;;;;;;6270886;28;20052;-79
2022/04/15 07:39:34;;;;;;;18.17;9.52;;;;;;;;;;6301003;28;20124;-78
2022/04/15 07:42:36;;;;;;;17.02;9.00;;;;;;;;;;6265885;28;20138;-79
2022/04/15 07:45:37;;;;;;;15.77;8.73;;;;;;;;;;6267948;28;20590;-77
2022/04/15 07:48:39;;;;;;;13.15;7.80;;;;;;;;;;6268948;28;20066;-78
2022/04/15 07:51:41;;;;;;;14.05;7.25;;;;;;;;;;6280696;28;20045;-78
2022/04/15 07:54:43;;;;;;;9.53;6.43;;;;;;;;;;6273026;28;20633;-77
2022/04/15 07:57:45;;;;;;;12.63;7.13;;;;;;;;;;6273398;28;20447;-80
2022/04/15 08:00:46;;;;;;;11.75;6.85;;;;;;;;;;6283817;28;20124;-81
2022/04/15 08:03:48;;;;;;;11.02;5.20;;;;;;;;;;6287849;28;20163;-79
2022/04/15 08:06:52;;;;;;;8.15;4.75;;;;;;;;;;6286747;28;20048;-82
2022/04/15 08:09:53;;;;;;;8.65;5.10;;;;;;;;;;6284482;28;20106;-79
2022/04/15 08:12:55;;;;;;;9.20;5.30;;;;;;;;;;6277446;28;20060;-79
2022/04/15 08:15:57;;;;;;;7.85;4.72;;;;;;;;;;6288269;28;20463;-81
2022/04/15 08:18:58;;;;;;;8.40;4.28;;;;;;;;;;6285018;28;20055;-80
2022/04/15 08:22:00;;;;;;;8.75;4.80;;;;;;;;;;6285463;28;20056;-78
2022/04/15 08:25:04;;;;;;;9.23;5.10;;;;;;;;;;6285931;28;20135;-79
2022/04/15 08:28:06;;;;;;;11.45;5.10;;;;;;;;;;6287597;28;20520;-80
2022/04/15 08:31:08;;;;;;;9.40;5.00;;;;;;;;;;6275458;28;20181;-78
2022/04/15 08:34:15;;;;;;;7.05;4.30;;;;;;;;;;6302381;27;20040;-79
2022/04/15 08:37:18;;;;;;;8.35;4.85;;;;;;;;;;6285718;27;20040;-79
2022/04/15 08:40:19;;;;;;;9.43;4.88;;;;;;;;;;6291361;27;20051;-79
2022/04/15 08:43:21;;;;;;;8.52;5.07;;;;;;;;;;6312678;28;20133;-80
2022/04/15 08:46:23;;;;;;;11.20;4.63;;;;;;;;;;6299432;28;20064;-80
2022/04/15 08:49:26;;;;;;;8.00;4.50;;;;;;;;;;6263557;28;20040;-81
2022/04/15 08:52:28;;;;;;;7.95;4.20;;;;;;;;;;6293294;28;20577;-80
2022/04/15 08:55:30;;;;;;;6.68;4.35;;;;;;;;;;6293618;28;20497;-81
2022/04/15 08:58:32;;;;;;;8.10;4.57;;;;;;;;;;6293904;28;20105;-81
2022/04/15 09:01:34;;;;;;;7.38;4.00;;;;;;;;;;6279966;28;20470;-79
2022/04/15 09:04:36;;;;;;;6.00;4.10;;;;;;;;;;6292213;28;21000;-80
2022/04/15 09:07:38;;;;;;;7.40;4.30;;;;;;;;;;6292960;28;20436;-81
2022/04/15 09:10:42;;;;;;;6.95;3.70;;;;;;;;;;6277262;28;20178;-79
2022/04/15 09:13:44;;;;;;;7.55;4.10;;;;;;;;;;6291182;28;20040;-80
2022/04/15 09:16:47;;;;;;;7.28;4.28;;;;;;;;;;6290136;28;20112;-79
2022/04/15 09:19:52;;;;;;;9.13;4.78;;;;;;;;;;6283625;28;20041;-81
2022/04/15 09:22:54;;;;;;;7.55;4.20;;;;;;;;;;6270950;28;20133;-79
2022/04/15 09:25:58;;;;;;;7.03;3.65;;;;;;;;;;6268002;28;20045;-81
2022/04/15 09:29:00;;;;;;;10.27;4.57;;;;;;;;;;6270052;28;20045;-79
2022/04/15 09:32:06;;;;;;;6.32;3.70;;;;;;;;;;6273019;28;20127;-80
2022/04/15 09:35:09;;;;;;;7.10;3.88;;;;;;;;;;6291254;28;20438;-80
2022/04/15 09:38:10;;;;;;;6.07;2.83;;;;;;;;;;6287265;28;20052;-80
2022/04/15 09:41:23;;;;;;;5.53;3.30;;;;;;;;;;6285043;28;20093;-79
2022/04/15 09:44:31;;;;;;;6.85;3.42;;;;;;;;;;6284004;28;20123;-78
2022/04/15 09:47:33;;;;;;;5.65;3.20;;;;;;;;;;6262494;28;20041;-79
2022/04/15 09:50:36;;;;;;;5.25;3.42;;;;;;;;;;6257524;28;20466;-77
2022/04/15 09:53:38;;;;;;;5.20;3.40;;;;;;;;;;6266206;28;20045;-78
2022/04/15 09:56:43;;;;;;;5.38;3.33;;;;;;;;;;6261774;28;20055;-79
2022/04/15 09:59:49;;;;;;;8.15;2.85;;;;;;;;;;6262056;28;20199;-81
2022/04/15 10:02:52;;;;;;;5.07;2.83;;;;;;;;;;6274074;28;20048;-82
2022/04/15 10:05:56;;;;;;;5.43;3.08;;;;;;;;;;6287813;28;20052;-82
2022/04/15 10:08:59;;;;;;;3.70;2.47;;;;;;;;;;6288380;28;20070;-79
2022/04/15 10:12:01;;;;;;;4.03;3.10;;;;;;;;;;6294008;28;20091;-79
2022/04/15 10:15:06;;;;;;;7.13;3.13;;;;;;;;;;6289462;28;20118;-80
2022/04/15 10:18:08;;;;;;;7.07;3.15;;;;;;;;;;6290820;28;20046;-80
2022/04/15 10:21:10;;;;;;;3.90;2.60;;;;;;;;;;6290295;28;20045;-81
2022/04/15 10:24:12;;;;;;;5.05;2.50;;;;;;;;;;6287255;27;20121;-83
2022/04/15 10:27:14;;;;;;;6.95;2.67;;;;;;;;;;6290983;28;20517;-83
2022/04/15 10:30:21;;;;;;;5.93;2.80;;;;;;;;;;6283907;27;20483;-85
2022/04/15 10:33:30;;;;;;;4.90;2.90;;;;;;;;;;6264271;28;20123;-81
2022/04/15 10:36:32;;;;;;;4.72;2.63;;;;;;;;;;6262596;28;20699;-83
2022/04/15 10:39:45;;;;;;;5.15;2.83;;;;;;;;;;6271829;28;20117;-81
2022/04/15 10:42:47;;;;;;;5.05;3.00;;;;;;;;;;6286981;28;20170;-80
2022/04/15 10:45:54;;;;;;;7.63;3.20;;;;;;;;;;6284001;27;20197;-81
2022/04/15 10:49:00;;;;;;;4.80;2.90;;;;;;;;;;6266667;28;20136;-84
2022/04/15 10:52:21;;;;;;;6.43;3.22;;;;;;;;;;6294494;27;20070;-81
2022/04/15 10:55:42;;;;;;;4.45;2.80;;;;;;;;;;6278301;28;20455;-81
2022/04/15 11:02:13;;;;;;;7.32;3.28;;;;;;;;;;6241628;28;20065;-81
2022/04/15 11:05:43;;;;;;;6.70;3.80;;;;;;;;;;6285460;28;20040;-83
2022/04/15 11:08:47;;;;;;;3.35;2.28;;;;;;;;;;6283239;28;20131;-81
2022/04/15 11:11:51;;;;;;;;;;;;;;;;;;6273991;28;20126;-81
2022/04/15 11:14:53;;;;;;;5.43;2.70;;;;;;;;;;6285737;28;19951;-81
2022/04/15 11:17:56;;;;;;;5.47;2.90;;;;;;;;;;6264291;28;20079;-82
2022/04/15 11:20:58;;;;;;;5.15;2.97;;;;;;;;;;6263406;28;20065;-79
2022/04/15 11:24:02;;;;;;;3.97;2.80;;;;;;;;;;6278169;28;20459;-83
2022/04/15 11:27:04;;;;;;;4.88;3.08;;;;;;;;;;6290531;28;20063;-79
2022/04/15 11:30:13;;;;;;;4.78;2.63;;;;;;;;;;6288602;28;20044;-80
2022/04/15 11:33:17;;;;;;;4.72;2.90;;;;;;;;;;6290385;28;20122;-79
2022/04/15 11:36:20;;;;;;;7.07;3.22;;;;;;;;;;6290283;28;20196;-80
2022/04/15 11:39:22;;;;;;;;;;;;;;;;;;6264015;28;20522;-80
2022/04/15 11:42:24;;;;;;;5.20;2.83;;;;;;;;;;6262401;28;20373;-80
2022/04/15 11:45:37;;;;;;;4.03;2.78;;;;;;;;;;6262173;28;20195;-79
2022/04/15 11:48:39;;;;;;;;;;;;;;;;;;6265270;28;20079;-78
2022/04/15 11:51:52;;;;;;;4.07;2.50;;;;;;;;;;6263902;28;19921;-78
2022/04/15 11:54:55;;;;;;;4.82;2.70;;;;;;;;;;6261919;28;20163;-78
2022/04/15 11:57:56;;;;;;;;;;;;;;;;;;6265472;28;20083;-80
2022/04/15 12:00:59;;;;;;;5.03;2.70;;;;;;;;;;6251402;28;20066;-81
2022/04/15 12:04:01;;;;;;;4.50;2.63;;;;;;;;;;6266736;28;20044;-81
2022/04/15 12:07:17;;;;;;;3.60;2.90;;;;;;;;;;6264344;28;20140;-80
2022/04/15 12:10:21;;;;;;;4.00;2.67;;;;;;;;;;6240860;28;20413;-81
2022/04/15 12:13:22;;;;;;;4.32;2.75;;;;;;;;;;6272670;28;20052;-80
2022/04/15 12:16:28;;;;;;;4.30;2.70;;;;;;;;;;6245540;28;20071;-80
2022/04/15 12:19:29;;;;;;;3.28;2.28;;;;;;;;;;6244740;28;20578;-80
2022/04/15 12:22:31;;;;;;;3.25;2.38;;;;;;;;;;6245007;28;20164;-80
2022/04/15 12:32:32;;;;;;;4.50;3.00;;;;;;;;;;6285063;28;20041;-79
2022/04/15 12:35:35;;;;;;;4.80;2.67;;;;;;;;;;6268783;28;20534;-80
2022/04/15 12:38:56;;;;;;;4.90;2.80;;;;;;;;;;6268048;28;20413;-81
2022/04/15 12:41:59;;;;;;;4.13;3.00;;;;;;;;;;6289270;28;20122;-81
2022/04/15 12:45:03;;;;;;;4.45;3.05;;;;;;;;;;6289892;28;20057;-81
2022/04/15 12:48:09;;;;;;;4.47;3.05;;;;;;;;;;6269038;28;20041;-80
2022/04/15 12:51:11;;;;;;;4.03;2.85;;;;;;;;;;6269008;28;20707;-81
2022/04/15 12:54:12;;;;;;;4.25;2.80;;;;;;;;;;6276918;28;20121;-80
2022/04/15 12:57:18;;;;;;;4.78;2.50;;;;;;;;;;6294164;28;20110;-82
2022/04/15 13:00:20;;;;;;;3.40;2.45;;;;;;;;;;6265733;28;20048;-80
2022/04/15 13:03:27;;;;;;;2.55;1.98;;;;;;;;;;6267623;28;20065;-79
2022/04/15 13:06:28;;;;;;;3.70;2.30;;;;;;;;;;6267204;28;20590;-80
2022/04/15 13:09:30;;;;;;;2.88;2.17;;;;;;;;;;6266367;28;20159;-82
2022/04/15 13:12:32;;;;;;;3.00;1.90;;;;;;;;;;6244090;28;20572;-83
2022/04/15 13:15:33;;;;;;;1.88;1.50;;;;;;;;;;6248316;28;20045;-81
2022/04/15 13:18:35;;;;;;;2.90;1.80;;;;;;;;;;6268596;28;20279;-81
2022/04/15 13:21:37;;;;;;;1.75;1.50;;;;;;;;;;6266571;28;20041;-81
2022/04/15 13:24:39;;;;;;;2.40;1.37;;;;;;;;;;6265800;28;20052;-82
2022/04/15 13:27:40;;;;;;;1.30;1.20;;;;;;;;;;6268827;28;20091;-81
2022/04/15 13:30:42;;;;;;;1.85;1.40;;;;;;;;;;6259935;28;20726;-82
2022/04/15 13:33:45;;;;;;;1.77;1.20;;;;;;;;;;6245871;28;20045;-81
2022/04/15 13:36:47;;;;;;;1.25;1.15;;;;;;;;;;6244596;28;20123;-82
2022/04/15 13:39:49;;;;;;;1.98;1.10;;;;;;;;;;6264224;28;20097;-84
2022/04/15 13:42:50;;;;;;;1.10;1.00;;;;;;;;;;6270408;28;20033;-80
2022/04/15 13:45:52;;;;;;;1.58;1.33;;;;;;;;;;6261720;28;20055;-80
2022/04/15 13:48:54;;;;;;;1.30;1.20;;;;;;;;;;6293256;28;20055;-80
2022/04/15 13:51:56;;;;;;;2.17;1.48;;;;;;;;;;6292330;28;20118;-81
2022/04/15 13:58:17;;;;;;;0.98;0.98;;;;;;;;;;6267424;28;20092;-81
2022/04/15 14:01:26;;;;;;;1.25;1.15;;;;;;;;;;6281755;28;20041;-80
2022/04/15 14:04:28;;;;;;;1.15;0.95;;;;;;;;;;6310286;28;20040;-81
2022/04/15 14:07:30;;;;;;;1.65;1.30;;;;;;;;;;6315378;27;20099;-81
2022/04/15 14:10:32;;;;;;;3.33;1.10;;;;;;;;;;6292269;28;20512;-82
2022/04/15 14:13:34;;;;;;;1.67;1.40;;;;;;;;;;6266657;28;20466;-81
2022/04/15 14:16:36;;;;;;;;;;;;;;;;;;6269262;28;20040;-81
2022/04/15 14:19:38;;;;;;;3.38;2.17;;;;;;;;;;6266833;28;20007;-81
2022/04/15 14:22:39;;;;;;;2.40;2.20;;;;;;;;;;6266776;28;20468;-80
2022/04/15 14:25:41;;;;;;;4.50;3.50;;;;;;;;;;6266688;28;20182;-78
2022/04/15 14:28:43;;;;;;;4.00;3.17;;;;;;;;;;6282271;28;20063;-83
2022/04/15 14:31:45;;;;;;;4.75;3.55;;;;;;;;;;6266069;28;20049;-80
2022/04/15 14:34:48;;;;;;;4.95;4.20;;;;;;;;;;6266861;28;20056;-80
2022/04/15 14:37:51;;;;;;;5.72;4.57;;;;;;;;;;6264983;28;20111;-80
2022/04/15 14:40:53;;;;;;;6.03;4.68;;;;;;;;;;6266040;28;20099;-82
2022/04/15 14:43:55;;;;;;;5.80;4.72;;;;;;;;;;6266375;28;20052;-84
2022/04/15 14:46:56;;;;;;;6.07;4.88;;;;;;;;;;6266907;28;20734;-82
2022/04/15 14:49:58;;;;;;;6.05;5.07;;;;;;;;;;6286106;27;20044;-80
2022/04/15 14:53:00;;;;;;;4.78;4.10;;;;;;;;;;6283527;27;20111;-79
2022/04/15 14:56:03;;;;;;;4.50;4.05;;;;;;;;;;6288471;27;20413;-79
2022/04/15 14:59:05;;;;;;;5.10;3.92;;;;;;;;;;6288022;28;20098;-79
2022/04/15 15:02:07;;;;;;;4.00;3.60;;;;;;;;;;6289367;28;20119;-81
2022/04/15 15:05:09;;;;;;;4.47;3.50;;;;;;;;;;6291333;28;20098;-81
2022/04/15 15:08:12;;;;;;;3.67;3.28;;;;;;;;;;6291447;28;20074;-81
2022/04/15 15:11:13;;;;;;;4.80;3.20;;;;;;;;;;6279570;28;20117;-81
2022/04/15 15:14:15;;;;;;;4.00;3.08;;;;;;;;;;6265609;28;20124;-79
2022/04/15 15:17:18;;;;;;;4.50;3.33;;;;;;;;;;6286602;28;20068;-80
2022/04/15 15:20:20;;;;;;;3.55;2.80;;;;;;;;;;6290262;28;20093;-81
2022/04/15 15:23:22;;;;;;;3.28;2.72;;;;;;;;;;6285389;28;20121;-81
2022/04/15 15:29:50;;;;;;;4.25;2.92;;;;;;;;;;6243058;28;20043;-81
2022/04/15 15:32:52;;;;;;;3.30;2.75;;;;;;;;;;6241305;28;20705;-81
2022/04/15 15:35:54;;;;;;;3.08;2.78;;;;;;;;;;6240033;28;20045;-81
2022/04/15 15:38:56;;;;;;;4.33;2.80;;;;;;;;;;6240503;28;20065;-81
2022/04/15 15:41:57;;;;;;;4.22;2.60;;;;;;;;;;6238038;28;20049;-81
2022/04/15 15:45:05;;;;;;;2.75;2.40;;;;;;;;;;6239353;28;20040;-81
2022/04/15 15:48:09;;;;;;;2.95;2.47;;;;;;;;;;6274685;28;20056;-82
2022/04/15 15:51:11;;;;;;;3.10;2.08;;;;;;;;;;6290850;28;20044;-80
2022/04/15 15:54:13;;;;;;;3.28;2.20;;;;;;;;;;6278622;28;20102;-80
2022/04/15 15:57:14;;;;;;;3.35;2.20;;;;;;;;;;6273396;28;20123;-80
2022/04/15 16:00:16;;;;;;;5.40;2.28;;;;;;;;;;6276869;28;20056;-80
2022/04/15 16:03:17;;;;;;;2.35;1.90;;;;;;;;;;6273057;28;20486;-80
2022/04/15 16:06:20;;;;;;;14.80;9.82;;;;;;;;;;6289958;28;20508;-79
2022/04/15 16:09:22;;;;;;;4.35;3.70;;;;;;;;;;6290844;28;20045;-80
2022/04/15 16:12:23;;;;;;;2.70;2.10;;;;;;;;;;6304186;28;20133;-81
2022/04/15 16:15:25;;;;;;;2.05;1.80;;;;;;;;;;6282469;28;20188;-79
2022/04/15 16:18:27;;;;;;;2.85;1.90;;;;;;;;;;6265872;28;20051;-80
2022/04/15 16:21:30;;;;;;;2.38;2.17;;;;;;;;;;6281406;28;20056;-80
2022/04/15 16:24:32;;;;;;;3.22;2.13;;;;;;;;;;6286189;28;20068;-80
2022/04/15 16:27:36;;;;;;;3.42;1.95;;;;;;;;;;6266279;28;20152;-79
2022/04/15 16:30:38;;;;;;;3.03;2.25;;;;;;;;;;6267005;28;20041;-79
2022/04/15 16:33:40;;;;;;;2.15;1.80;;;;;;;;;;6264642;28;20120;-80
2022/04/15 16:36:42;;;;;;;3.38;1.90;;;;;;;;;;6296847;28;20097;-80
2022/04/15 16:39:44;;;;;;;2.97;1.75;;;;;;;;;;6283292;28;20126;-80
2022/04/15 16:42:45;;;;;;;3.00;1.90;;;;;;;;;;6261532;28;20544;-80
2022/04/15 16:45:47;;;;;;;2.00;1.80;;;;;;;;;;6270584;28;20054;-80
2022/04/15 16:48:49;;;;;;;2.50;2.03;;;;;;;;;;6282945;28;20182;-79
2022/04/15 16:51:51;;;;;;;3.30;2.33;;;;;;;;;;6284149;28;20064;-80
2022/04/15 17:01:33;;;;;;;2.05;1.77;;;;;;;;;;6270684;28;20403;-81
2022/04/15 17:04:34;;;;;;;1.95;1.75;;;;;;;;;;6283172;28;20052;-79
2022/04/15 17:07:36;;;;;;;2.17;1.83;;;;;;;;;;6294872;28;20455;-80
2022/04/15 17:10:38;;;;;;;2.80;1.77;;;;;;;;;;6277823;28;20051;-80
2022/04/15 17:13:45;;;;;;;2.72;2.15;;;;;;;;;;6279998;28;20051;-80
2022/04/15 17:16:47;;;;;;;2.30;1.77;;;;;;;;;;6283525;28;20127;-80
2022/04/15 17:19:48;;;;;;;1.85;1.55;;;;;;;;;;6246646;28;20774;-80
2022/04/15 17:22:50;;;;;;;3.95;2.80;;;;;;;;;;6261997;28;20119;-80
2022/04/15 17:25:53;;;;;;;3.78;3.38;;;;;;;;;;6294571;28;20056;-79
2022/04/15 17:28:54;;;;;;;2.43;2.13;;;;;;;;;;6263095;28;20128;-79
2022/04/15 17:31:56;;;;;;;3.70;2.35;;;;;;;;;;6267537;28;20048;-80
2022/04/15 17:34:58;;;;;;;1.92;1.70;;;;;;;;;;6282457;28;20182;-79
2022/04/15 17:37:59;;;;;;;2.45;2.20;;;;;;;;;;6284117;28;20185;-81
2022/04/15 17:41:02;;;;;;;3.03;2.55;;;;;;;;;;6289872;28;20043;-82
2022/04/15 17:44:04;;;;;;;3.45;2.47;;;;;;;;;;6291655;28;20117;-80
2022/04/15 17:47:05;;;;;;;4.30;3.13;;;;;;;;;;6289796;28;20119;-80
2022/04/15 17:50:07;;;;;;;2.47;1.73;;;;;;;;;;6291037;28;20127;-81
2022/04/15 17:53:09;;;;;;;2.28;1.90;;;;;;;;;;6293374;28;20052;-81
2022/04/15 17:56:14;;;;;;;2.35;2.15;;;;;;;;;;6274143;28;20111;-80
2022/04/15 17:59:16;;;;;;;2.35;2.00;;;;;;;;;;6289146;28;20120;-80
2022/04/15 18:02:18;;;;;;;2.63;2.25;;;;;;;;;;6283316;28;20500;-80
2022/04/15 18:05:20;;;;;;;4.10;2.25;;;;;;;;;;6299909;28;20063;-81
2022/04/15 18:08:22;;;;;;;3.90;2.35;;;;;;;;;;6281569;28;20041;-80
2022/04/15 18:11:23;;;;;;;1.92;1.70;;;;;;;;;;6286853;28;20044;-79
2022/04/15 18:14:27;;;;;;;3.33;2.10;;;;;;;;;;6266267;28;20203;-80
2022/04/15 18:17:31;;;;;;;3.35;2.33;;;;;;;;;;6281332;28;20534;-80
2022/04/15 18:20:37;;;;;;;3.97;2.40;;;;;;;;;;6276810;28;20135;-79
2022/04/15 18:23:38;;;;;;;3.25;2.10;;;;;;;;;;6282096;28;20070;-80
2022/04/15 18:26:41;;;;;;;2.03;1.70;;;;;;;;;;6288537;28;20127;-78
2022/04/15 18:29:42;;;;;;;2.60;2.20;;;;;;;;;;6288187;28;20068;-78
2022/04/15 18:32:44;;;;;;;2.63;1.50;;;;;;;;;;6266061;28;20642;-79